createdAt,value
2022-12-04T00:01:29.893Z,7.07
2022-12-04T00:04:00.441Z,6.99
2022-12-04T00:06:29.959Z,7.06
2022-12-04T00:08:58.413Z,7.06
2022-12-04T00:11:30.078Z,7.10
2022-12-04T00:14:06.084Z,7.10
2022-12-04T00:16:36.085Z,7.05
2022-12-04T00:19:04.850Z,7.04
2022-12-04T00:21:33.290Z,6.99
2022-12-04T00:24:01.451Z,7.06
2022-12-04T00:26:31.973Z,7.08
2022-12-04T00:29:00.427Z,7.03
2022-12-04T00:31:31.103Z,7.00
2022-12-04T00:34:00.345Z,6.97
2022-12-04T00:36:29.974Z,6.91
2022-12-04T00:39:01.243Z,6.98
2022-12-04T00:41:31.962Z,7.04
2022-12-04T00:44:02.443Z,7.08
2022-12-04T00:46:31.524Z,7.09
2022-12-04T00:49:03.284Z,7.10
2022-12-04T00:51:31.804Z,7.12
2022-12-04T00:53:59.929Z,7.13
2022-12-04T00:56:30.543Z,7.14
2022-12-04T00:59:00.573Z,7.13
2022-12-04T01:01:30.251Z,7.07
2022-12-04T01:03:58.368Z,7.11
2022-12-04T01:06:30.243Z,7.08
2022-12-04T01:08:59.883Z,7.05
2022-12-04T01:11:29.884Z,7.15
2022-12-04T01:13:59.110Z,7.05
2022-12-04T01:16:34.634Z,7.05
2022-12-04T01:19:02.787Z,7.10
2022-12-04T01:21:31.307Z,7.09
2022-12-04T01:24:00.183Z,6.95
2022-12-04T01:26:28.786Z,7.09
2022-12-04T01:28:57.465Z,6.90
2022-12-04T01:31:26.289Z,7.07
2022-12-04T01:33:54.759Z,6.96
2022-12-04T01:36:25.358Z,7.05
2022-12-04T01:38:53.878Z,7.06
2022-12-04T01:41:25.078Z,7.08
2022-12-04T01:44:33.007Z,7.13
2022-12-04T01:47:01.922Z,7.19
2022-12-04T01:49:34.519Z,7.19
2022-12-04T01:52:09.759Z,7.24
2022-12-04T01:54:42.964Z,7.26
2022-12-04T01:57:18.381Z,7.28
2022-12-04T01:59:54.433Z,7.28
2022-12-04T02:02:45.265Z,7.31
2022-12-04T02:05:16.588Z,7.30
2022-12-04T02:07:48.038Z,7.22
2022-12-04T02:10:17.603Z,7.20
2022-12-04T02:13:15.505Z,7.13
2022-12-04T02:15:54.824Z,7.08
2022-12-04T02:18:41.458Z,7.06
2022-12-04T02:21:12.943Z,7.06
2022-12-04T02:24:08.989Z,7.08
2022-12-04T02:26:51.342Z,6.89
2022-12-04T02:29:33.307Z,6.96
2022-12-04T02:32:07.267Z,6.95
2022-12-04T02:35:03.623Z,7.05
2022-12-04T02:37:48.023Z,7.01
2022-12-04T02:40:59.064Z,7.00
2022-12-04T02:43:33.102Z,6.97
2022-12-04T02:46:09.208Z,7.06
2022-12-04T02:48:41.663Z,7.16
2022-12-04T02:51:14.183Z,7.12
2022-12-04T02:53:55.944Z,7.18
2022-12-04T02:56:28.624Z,7.21
2022-12-04T02:59:02.665Z,7.19
2022-12-04T03:01:50.245Z,7.18
2022-12-04T03:04:22.464Z,7.23
2022-12-04T03:06:56.344Z,7.24
2022-12-04T03:09:32.264Z,7.25
2022-12-04T03:12:47.143Z,7.23
2022-12-04T03:15:22.904Z,7.22
2022-12-04T03:18:02.144Z,7.14
2022-12-04T03:20:34.586Z,7.12
2022-12-04T03:23:13.743Z,7.14
2022-12-04T03:25:53.263Z,7.15
2022-12-04T03:28:35.225Z,7.14
2022-12-04T03:31:08.398Z,7.18
2022-12-04T03:33:42.305Z,7.16
2022-12-04T03:36:19.064Z,7.11
2022-12-04T03:38:58.705Z,7.13
2022-12-04T03:41:50.327Z,7.11
2022-12-04T03:44:24.227Z,7.02
2022-12-04T03:47:21.963Z,6.98
2022-12-04T03:49:58.180Z,6.88
2022-12-04T03:52:50.918Z,6.91
2022-12-04T03:55:29.919Z,6.91
2022-12-04T03:58:04.641Z,6.95
2022-12-04T04:00:33.879Z,6.74
2022-12-04T04:03:16.160Z,6.81
2022-12-04T04:05:49.838Z,6.87
2022-12-04T04:08:28.069Z,6.91
2022-12-04T04:11:24.157Z,6.76
2022-12-04T04:14:23.239Z,6.81
2022-12-04T04:17:19.760Z,6.67
2022-12-04T04:20:13.239Z,6.64
2022-12-04T04:23:00.719Z,6.53
2022-12-04T04:25:30.037Z,6.57
2022-12-04T04:27:59.178Z,6.44
2022-12-04T04:30:30.360Z,6.51
2022-12-04T04:33:12.518Z,6.37
2022-12-04T04:36:03.239Z,6.41
2022-12-04T04:38:51.480Z,6.20
2022-12-04T04:41:30.119Z,6.17
2022-12-04T04:44:16.280Z,6.13
2022-12-04T04:46:52.594Z,6.07
2022-12-04T04:49:27.001Z,6.30
2022-12-04T04:51:56.799Z,6.31
2022-12-04T04:54:27.518Z,6.38
2022-12-04T04:56:56.079Z,6.30
2022-12-04T04:59:24.400Z,6.31
2022-12-04T05:01:52.571Z,6.38
2022-12-04T05:04:20.839Z,6.31
2022-12-04T05:06:49.399Z,6.34
2022-12-04T05:09:17.999Z,6.30
2022-12-04T05:11:46.119Z,6.21
2022-12-04T05:14:14.398Z,6.31
2022-12-04T05:16:42.798Z,6.33
2022-12-04T05:19:29.198Z,6.39
2022-12-04T05:21:58.081Z,6.37
2022-12-04T05:24:26.198Z,6.38
2022-12-04T05:26:54.917Z,6.37
2022-12-04T05:29:23.359Z,6.29
2022-12-04T05:31:51.758Z,6.23
2022-12-04T05:34:19.880Z,6.24
2022-12-04T05:36:48.159Z,6.18
2022-12-04T05:39:16.200Z,6.18
2022-12-04T05:41:44.839Z,6.23
2022-12-04T05:44:15.838Z,6.09
2022-12-04T05:46:44.089Z,6.15
2022-12-04T05:49:12.321Z,6.05
2022-12-04T05:51:40.438Z,6.01
2022-12-04T05:54:08.759Z,6.02
2022-12-04T05:56:37.600Z,6.05
2022-12-04T05:59:06.158Z,6.07
2022-12-04T06:01:34.492Z,6.12
2022-12-04T06:04:02.598Z,6.14
2022-12-04T17:29:03.115Z,7.20
2022-12-04T17:31:31.301Z,7.27
2022-12-04T17:33:59.304Z,7.38
2022-12-04T17:36:28.075Z,7.50
2022-12-04T17:38:58.015Z,7.58
2022-12-04T17:41:27.143Z,7.66
2022-12-04T17:43:55.250Z,7.69
2022-12-04T17:46:24.898Z,7.78
2022-12-04T17:48:55.891Z,7.77
2022-12-04T17:51:25.494Z,7.92
2022-12-04T17:53:54.580Z,7.94
2022-12-04T17:56:24.330Z,8.01
2022-12-04T17:58:53.332Z,8.03
2022-12-04T18:01:27.327Z,8.07
2022-12-04T18:04:02.289Z,8.15
2022-12-04T18:06:34.210Z,8.21
2022-12-04T18:09:03.610Z,8.26
2022-12-04T18:11:33.656Z,8.28
2022-12-04T18:14:10.128Z,8.30
2022-12-04T18:16:48.955Z,8.27
2022-12-04T18:19:18.503Z,8.27
2022-12-04T18:21:48.449Z,8.31
2022-12-04T18:24:17.821Z,8.33
2022-12-04T18:26:49.815Z,8.35
2022-12-04T18:29:24.370Z,8.37
2022-12-04T18:31:52.971Z,8.37
2022-12-04T18:34:24.889Z,8.38
2022-12-04T18:36:53.435Z,8.40
2022-12-04T18:39:23.530Z,8.40
2022-12-04T18:41:54.930Z,8.43
2022-12-04T18:44:30.334Z,8.45
2022-12-04T18:47:01.140Z,8.47
2022-12-04T18:49:29.490Z,8.47
2022-12-04T18:51:59.329Z,8.47
2022-12-04T18:54:27.611Z,8.47
2022-12-04T18:56:56.130Z,8.45
2022-12-04T18:59:26.379Z,8.44
2022-12-04T19:01:56.051Z,8.45
2022-12-04T19:04:26.140Z,8.46
2022-12-04T19:06:56.236Z,8.46
2022-12-04T19:10:02.004Z,8.47
2022-12-04T19:12:16.293Z,8.43
2022-12-04T19:14:44.565Z,8.35
2022-12-04T19:17:13.288Z,8.35
2022-12-04T19:19:41.525Z,8.34
2022-12-04T19:22:09.645Z,8.34
2022-12-04T19:24:37.684Z,8.35
2022-12-04T19:27:12.031Z,8.24
2022-12-04T19:29:41.687Z,8.09
2022-12-04T19:32:11.195Z,8.18
2022-12-04T19:34:39.970Z,8.19
2022-12-04T19:37:08.126Z,8.25
2022-12-04T19:39:36.495Z,8.28
2022-12-04T19:42:04.606Z,8.28
2022-12-04T19:44:49.349Z,8.31
2022-12-04T19:47:18.806Z,8.31
2022-12-04T19:49:47.324Z,8.36
2022-12-04T19:52:17.732Z,8.37
2022-12-04T19:54:47.607Z,8.37
2022-12-04T19:57:16.366Z,8.37
2022-12-04T19:59:57.595Z,8.42
2022-12-04T20:02:25.850Z,8.44
2022-12-04T20:04:53.924Z,8.35
2022-12-04T20:07:21.965Z,8.28
2022-12-04T20:09:52.535Z,8.32
2022-12-04T20:12:20.925Z,8.35
2022-12-04T20:14:49.181Z,8.33
2022-12-04T20:17:17.380Z,8.30
2022-12-04T20:19:45.959Z,8.19
2022-12-04T20:22:14.079Z,8.18
2022-12-04T20:24:43.320Z,8.19
2022-12-04T20:27:16.069Z,8.18
2022-12-04T20:29:45.206Z,8.00
2022-12-04T20:32:14.440Z,7.97
2022-12-04T20:34:43.882Z,7.99
2022-12-04T20:37:12.483Z,8.10
2022-12-04T20:39:40.682Z,8.15
2022-12-04T20:42:09.690Z,8.07
2022-12-04T20:44:38.045Z,8.14
2022-12-04T20:47:06.080Z,8.15
2022-12-04T20:49:34.285Z,8.12
2022-12-04T20:52:02.720Z,8.22
2022-12-04T20:54:30.680Z,8.01
2022-12-04T20:56:59.042Z,8.01
2022-12-04T20:59:27.208Z,8.13
2022-12-04T21:01:55.950Z,8.16
2022-12-04T21:04:24.641Z,8.18
2022-12-04T21:06:52.879Z,8.22
2022-12-04T21:09:24.160Z,8.22
2022-12-04T21:11:57.679Z,8.24
2022-12-04T21:14:50.322Z,8.19
2022-12-04T21:17:20.240Z,8.24
2022-12-04T21:19:50.918Z,8.25
2022-12-04T21:22:20.519Z,8.29
2022-12-04T21:24:50.838Z,8.27
2022-12-04T21:27:21.150Z,8.25
2022-12-04T21:29:50.294Z,8.20
2022-12-04T21:32:19.728Z,8.12
2022-12-04T21:34:48.125Z,8.10
2022-12-04T21:37:16.324Z,8.11
2022-12-04T21:39:44.765Z,8.10
2022-12-04T21:42:30.799Z,8.16
2022-12-04T21:45:01.087Z,8.16
2022-12-04T21:47:30.199Z,8.18
2022-12-04T21:49:58.867Z,8.10
2022-12-04T21:52:27.240Z,8.12
2022-12-04T21:54:55.761Z,8.18
2022-12-04T21:57:24.400Z,8.20
2022-12-04T21:59:53.107Z,8.14
2022-12-04T22:02:21.764Z,8.13
2022-12-04T22:04:49.903Z,8.23
2022-12-04T22:07:18.229Z,8.21
2022-12-04T22:09:47.545Z,8.27
2022-12-04T22:15:05.825Z,8.35
2022-12-04T22:20:17.270Z,8.19
2022-12-04T22:22:45.993Z,8.10
2022-12-04T22:25:15.593Z,8.14
2022-12-04T22:27:44.865Z,8.14
2022-12-04T22:30:19.545Z,8.19
2022-12-04T22:32:48.305Z,8.17
